Time;durP1;ratioP1;P1;durP2;ratioP2;P2;SDS_P1;SDS_P2;PMS_P1;PMS_P2;Temp;Humidity;BMP_temperature;BMP_pressure;BME280_temperature;BME280_humidity;BME280_pressure;Samples;Min_cycle;Max_cycle;Signal;HPM_P1;HPM_P2
2022/08/10 00:02:20;;;;;;;1.27;0.87;;;;;;;;;;5059137;28;20197;-65
2022/08/10 00:04:51;;;;;;;0.80;0.80;;;;;;;;;;5066195;28;20210;-66
2022/08/10 00:07:21;;;;;;;0.90;0.70;;;;;;;;;;5048251;28;20205;-66
2022/08/10 00:09:51;;;;;;;1.63;0.87;;;;;;;;;;5063751;28;20414;-66
2022/08/10 00:12:25;;;;;;;0.90;0.80;;;;;;;;;;5066356;28;20198;-66
2022/08/10 00:15:26;;;;;;;1.13;0.90;;;;;;;;;;5053035;28;20204;-66
2022/08/10 00:18:23;;;;;;;1.83;0.80;;;;;;;;;;5055930;28;20185;-66
2022/08/10 00:21:07;;;;;;;0.97;0.70;;;;;;;;;;5059354;28;20204;-66
2022/08/10 00:23:39;;;;;;;0.70;0.70;;;;;;;;;;5062016;28;20243;-66
2022/08/10 00:26:09;;;;;;;1.43;1.00;;;;;;;;;;5065439;28;20212;-66
2022/08/10 00:28:40;;;;;;;0.80;0.80;;;;;;;;;;5041824;28;20194;-66
2022/08/10 00:31:12;;;;;;;2.10;0.93;;;;;;;;;;5044063;28;20675;-66
2022/08/10 00:33:44;;;;;;;0.77;0.77;;;;;;;;;;5039488;28;24230;-66
2022/08/10 00:36:15;;;;;;;1.00;0.90;;;;;;;;;;5051297;28;20703;-66
2022/08/10 00:38:47;;;;;;;1.03;1.03;;;;;;;;;;5054075;28;20270;-66
2022/08/10 00:41:19;;;;;;;0.70;0.70;;;;;;;;;;5064408;28;20185;-66
2022/08/10 00:43:52;;;;;;;0.93;0.80;;;;;;;;;;5063648;28;20198;-66
2022/08/10 00:46:24;;;;;;;0.90;0.90;;;;;;;;;;5054094;28;20562;-65
2022/08/10 00:48:53;;;;;;;0.70;0.70;;;;;;;;;;5047638;28;20271;-66
2022/08/10 00:51:31;;;;;;;0.77;0.77;;;;;;;;;;5030999;28;20210;-65
2022/08/10 00:54:19;;;;;;;0.90;0.80;;;;;;;;;;5066301;28;20197;-67
2022/08/10 00:56:53;;;;;;;0.80;0.80;;;;;;;;;;5049975;28;20193;-67
2022/08/10 00:59:45;;;;;;;0.80;0.80;;;;;;;;;;5042278;28;20275;-66
2022/08/10 01:02:32;;;;;;;1.00;0.90;;;;;;;;;;5058588;28;20218;-67
2022/08/10 01:05:08;;;;;;;0.80;0.80;;;;;;;;;;5065818;28;20541;-67
2022/08/10 01:07:57;;;;;;;0.90;0.90;;;;;;;;;;5048739;28;20330;-66
2022/08/10 01:10:35;;;;;;;1.10;1.00;;;;;;;;;;5048527;28;20203;-66
2022/08/10 01:13:15;;;;;;;0.97;0.80;;;;;;;;;;5056213;28;20661;-66
2022/08/10 01:16:06;;;;;;;0.80;0.77;;;;;;;;;;5061969;28;20240;-66
2022/08/10 01:18:47;;;;;;;1.10;0.70;;;;;;;;;;5049053;28;20240;-66
2022/08/10 01:21:27;;;;;;;0.80;0.80;;;;;;;;;;5050338;28;20543;-66
2022/08/10 01:24:14;;;;;;;3.50;0.80;;;;;;;;;;5055081;28;20202;-66
2022/08/10 01:27:10;;;;;;;0.80;0.80;;;;;;;;;;5048292;28;20271;-67
2022/08/10 01:29:57;;;;;;;0.80;0.80;;;;;;;;;;5058557;28;20181;-66
2022/08/10 01:32:41;;;;;;;0.90;0.87;;;;;;;;;;5062800;28;20627;-66
2022/08/10 01:35:19;;;;;;;0.70;0.70;;;;;;;;;;5057006;28;20282;-66
2022/08/10 01:38:04;;;;;;;0.80;0.80;;;;;;;;;;5064697;28;20194;-66
2022/08/10 01:40:54;;;;;;;0.97;0.90;;;;;;;;;;5052880;28;20627;-66
2022/08/10 01:43:27;;;;;;;0.97;0.70;;;;;;;;;;5044060;28;20187;-66
2022/08/10 01:45:59;;;;;;;0.80;0.80;;;;;;;;;;5043521;28;20233;-67
2022/08/10 01:48:34;;;;;;;0.90;0.90;;;;;;;;;;5032082;28;20242;-65
2022/08/10 01:51:15;;;;;;;0.70;0.67;;;;;;;;;;5032590;28;20224;-65
2022/08/10 01:53:55;;;;;;;1.10;0.90;;;;;;;;;;5025622;28;20331;-65
2022/08/10 01:56:27;;;;;;;0.80;0.80;;;;;;;;;;5042814;28;20613;-68
2022/08/10 01:59:02;;;;;;;1.00;0.90;;;;;;;;;;5035175;28;20216;-66
2022/08/10 02:01:40;;;;;;;0.93;0.93;;;;;;;;;;5019428;28;20537;-65
2022/08/10 02:04:14;;;;;;;0.93;0.87;;;;;;;;;;5032689;28;20186;-65
2022/08/10 02:06:46;;;;;;;0.90;0.90;;;;;;;;;;5030350;28;20702;-65
2022/08/10 02:09:30;;;;;;;0.80;0.80;;;;;;;;;;5042164;28;20194;-65
2022/08/10 02:12:04;;;;;;;0.70;0.70;;;;;;;;;;5036131;28;20190;-66
2022/08/10 02:14:42;;;;;;;2.93;0.90;;;;;;;;;;5028716;28;20206;-65
2022/08/10 02:17:18;;;;;;;0.83;0.83;;;;;;;;;;5026351;28;20239;-65
2022/08/10 02:20:12;;;;;;;1.00;1.00;;;;;;;;;;5031529;28;20621;-65
2022/08/10 02:22:44;;;;;;;0.87;0.87;;;;;;;;;;5019989;28;20230;-65
2022/08/10 02:25:17;;;;;;;0.67;0.67;;;;;;;;;;5015210;28;20250;-65
2022/08/10 02:28:18;;;;;;;1.00;0.77;;;;;;;;;;5021647;28;20218;-65
2022/08/10 02:31:04;;;;;;;1.20;1.10;;;;;;;;;;5031925;28;20222;-65
2022/08/10 02:33:42;;;;;;;1.70;0.90;;;;;;;;;;5034642;28;20216;-65
2022/08/10 02:36:27;;;;;;;1.07;0.80;;;;;;;;;;5036687;28;20213;-64
2022/08/10 02:39:05;;;;;;;0.80;0.70;;;;;;;;;;5042955;28;20980;-66
2022/08/10 02:42:02;;;;;;;0.80;0.80;;;;;;;;;;5029256;28;20241;-66
2022/08/10 02:45:11;;;;;;;0.90;0.90;;;;;;;;;;5050289;28;20227;-66
2022/08/10 02:48:02;;;;;;;0.70;0.70;;;;;;;;;;5039123;28;20234;-66
2022/08/10 02:50:41;;;;;;;0.90;0.90;;;;;;;;;;5069096;28;20193;-66
2022/08/10 02:53:30;;;;;;;0.70;0.70;;;;;;;;;;5075886;28;20541;-66
2022/08/10 02:56:40;;;;;;;1.00;1.00;;;;;;;;;;5080754;28;20201;-66
2022/08/10 02:59:36;;;;;;;0.80;0.80;;;;;;;;;;5066008;28;20217;-66
2022/08/10 03:02:13;;;;;;;1.00;0.80;;;;;;;;;;5071657;28;20288;-66
2022/08/10 03:04:48;;;;;;;0.90;0.90;;;;;;;;;;5087929;28;20237;-66
2022/08/10 03:07:27;;;;;;;0.80;0.80;;;;;;;;;;5074027;28;20240;-66
2022/08/10 03:10:26;;;;;;;0.80;0.80;;;;;;;;;;5061009;28;20596;-66
2022/08/10 03:12:58;;;;;;;1.07;0.90;;;;;;;;;;5073268;28;20201;-66
2022/08/10 03:15:38;;;;;;;0.70;0.70;;;;;;;;;;5073511;28;20197;-66
2022/08/10 03:18:09;;;;;;;1.20;1.10;;;;;;;;;;5079861;28;20269;-66
2022/08/10 03:20:42;;;;;;;0.73;0.73;;;;;;;;;;5070399;28;20205;-65
2022/08/10 03:23:14;;;;;;;0.87;0.87;;;;;;;;;;5049678;28;20201;-65
2022/08/10 03:25:50;;;;;;;0.83;0.83;;;;;;;;;;5082514;28;20244;-66
2022/08/10 03:28:31;;;;;;;0.97;0.70;;;;;;;;;;5088078;28;20275;-66
2022/08/10 03:31:10;;;;;;;0.67;0.67;;;;;;;;;;5084265;28;20538;-66
2022/08/10 03:33:47;;;;;;;0.90;0.90;;;;;;;;;;5077039;28;20291;-65
2022/08/10 03:36:27;;;;;;;0.90;0.90;;;;;;;;;;5073112;28;20534;-65
2022/08/10 03:39:15;;;;;;;0.70;0.70;;;;;;;;;;5074084;28;20221;-66
2022/08/10 03:41:50;;;;;;;0.90;0.90;;;;;;;;;;5067286;28;20192;-66
2022/08/10 03:44:25;;;;;;;0.70;0.70;;;;;;;;;;5072098;28;20596;-66
2022/08/10 03:46:54;;;;;;;0.90;0.90;;;;;;;;;;5057816;28;20248;-66
2022/08/10 03:49:23;;;;;;;0.93;0.83;;;;;;;;;;5073601;28;20208;-66
2022/08/10 03:51:53;;;;;;;0.93;0.90;;;;;;;;;;5068478;28;20214;-66
2022/08/10 03:54:32;;;;;;;1.00;0.87;;;;;;;;;;5069336;28;20670;-66
2022/08/10 03:57:09;;;;;;;0.80;0.80;;;;;;;;;;5070973;28;20185;-66
2022/08/10 03:59:42;;;;;;;1.10;1.03;;;;;;;;;;5064169;28;20213;-66
2022/08/10 04:02:13;;;;;;;1.77;0.90;;;;;;;;;;5070593;28;20197;-66
2022/08/10 04:05:13;;;;;;;0.80;0.80;;;;;;;;;;5076975;28;20193;-66
2022/08/10 04:07:45;;;;;;;0.70;0.70;;;;;;;;;;5068314;28;20240;-66
2022/08/10 04:10:16;;;;;;;0.80;0.80;;;;;;;;;;5080533;28;20651;-65
2022/08/10 04:12:47;;;;;;;0.80;0.80;;;;;;;;;;5078686;28;20224;-66
2022/08/10 04:15:26;;;;;;;0.80;0.80;;;;;;;;;;5070315;28;20262;-65
2022/08/10 04:17:58;;;;;;;1.53;0.80;;;;;;;;;;5075764;28;20242;-66
2022/08/10 04:20:38;;;;;;;1.07;0.83;;;;;;;;;;5087573;28;20254;-66
2022/08/10 04:23:18;;;;;;;0.97;0.93;;;;;;;;;;5065052;28;20211;-66
2022/08/10 04:25:50;;;;;;;0.80;0.80;;;;;;;;;;5081231;28;20197;-65
2022/08/10 04:28:22;;;;;;;0.77;0.77;;;;;;;;;;5067802;28;20275;-66
2022/08/10 04:30:55;;;;;;;0.60;0.60;;;;;;;;;;5063907;28;20525;-66
2022/08/10 04:33:25;;;;;;;1.33;0.60;;;;;;;;;;5065610;28;20197;-66
2022/08/10 04:35:57;;;;;;;0.80;0.80;;;;;;;;;;5081202;28;20220;-66
2022/08/10 04:38:28;;;;;;;1.10;0.90;;;;;;;;;;5070344;28;20265;-66
2022/08/10 04:41:02;;;;;;;0.83;0.80;;;;;;;;;;5068578;28;20215;-65
2022/08/10 04:43:34;;;;;;;0.80;0.80;;;;;;;;;;5067388;28;20200;-65
2022/08/10 04:46:04;;;;;;;1.00;0.90;;;;;;;;;;5075134;28;20221;-66
2022/08/10 04:48:57;;;;;;;0.90;0.90;;;;;;;;;;5072903;28;20205;-66
2022/08/10 04:51:29;;;;;;;0.87;0.87;;;;;;;;;;5082995;28;20205;-65
2022/08/10 04:54:05;;;;;;;0.80;0.80;;;;;;;;;;5082812;28;20215;-64
2022/08/10 04:56:46;;;;;;;1.00;1.00;;;;;;;;;;5080571;28;20197;-65
2022/08/10 04:59:18;;;;;;;0.70;0.70;;;;;;;;;;5075940;28;20208;-64
2022/08/10 05:01:51;;;;;;;1.00;0.80;;;;;;;;;;5061262;28;20301;-65
2022/08/10 05:04:47;;;;;;;1.00;1.00;;;;;;;;;;5074950;28;20304;-65
2022/08/10 05:07:18;;;;;;;1.07;0.90;;;;;;;;;;5084476;28;20213;-64
2022/08/10 05:09:47;;;;;;;0.93;0.90;;;;;;;;;;5082461;28;20197;-67
2022/08/10 05:12:37;;;;;;;0.90;0.90;;;;;;;;;;5054834;28;20235;-64
2022/08/10 05:15:17;;;;;;;0.73;0.73;;;;;;;;;;5065606;28;20261;-65
2022/08/10 05:17:46;;;;;;;0.80;0.80;;;;;;;;;;5068154;28;20203;-66
2022/08/10 05:20:39;;;;;;;0.97;0.73;;;;;;;;;;5080640;28;20630;-66
2022/08/10 05:23:09;;;;;;;0.80;0.80;;;;;;;;;;5086799;28;20216;-66
2022/08/10 05:25:42;;;;;;;1.00;1.00;;;;;;;;;;5071959;28;20642;-66
2022/08/10 05:28:15;;;;;;;0.90;0.90;;;;;;;;;;5055594;28;20209;-66
2022/08/10 05:30:51;;;;;;;1.00;0.70;;;;;;;;;;5083874;28;20563;-65
2022/08/10 05:33:24;;;;;;;0.73;0.73;;;;;;;;;;5081059;28;20650;-65
2022/08/10 05:35:58;;;;;;;0.90;0.80;;;;;;;;;;5089142;28;20284;-65
2022/08/10 05:38:29;;;;;;;0.80;0.80;;;;;;;;;;5056419;28;20615;-65
2022/08/10 05:40:59;;;;;;;0.83;0.83;;;;;;;;;;5077966;28;20240;-66
2022/08/10 05:43:28;;;;;;;1.20;1.20;;;;;;;;;;5077260;28;20251;-66
2022/08/10 05:45:57;;;;;;;0.80;0.80;;;;;;;;;;5075733;28;20215;-66
2022/08/10 05:48:54;;;;;;;1.20;1.03;;;;;;;;;;5083690;28;20185;-66
2022/08/10 05:51:30;;;;;;;1.77;0.87;;;;;;;;;;5074093;28;20199;-66
2022/08/10 05:54:14;;;;;;;0.77;0.70;;;;;;;;;;5079522;28;20190;-66
2022/08/10 05:56:47;;;;;;;0.90;0.90;;;;;;;;;;5086227;28;20250;-66
2022/08/10 05:59:26;;;;;;;1.00;0.90;;;;;;;;;;5075826;28;20665;-66
2022/08/10 06:02:45;;;;;;;0.80;0.80;;;;;;;;;;5058599;28;20600;-65
2022/08/10 06:05:18;;;;;;;1.30;1.20;;;;;;;;;;5042970;28;20279;-68
2022/08/10 06:08:11;;;;;;;1.10;1.00;;;;;;;;;;5058364;28;20219;-66
2022/08/10 06:10:43;;;;;;;1.30;1.10;;;;;;;;;;5039070;28;20284;-65
2022/08/10 06:16:45;;;;;;;2.43;0.70;;;;;;;;;;5074654;28;20204;-66
2022/08/10 06:19:24;;;;;;;0.93;0.80;;;;;;;;;;5080875;28;20670;-64
2022/08/10 06:21:57;;;;;;;1.60;1.00;;;;;;;;;;5079905;28;20209;-64
2022/08/10 06:24:30;;;;;;;0.90;0.90;;;;;;;;;;5081363;28;20197;-64
2022/08/10 06:26:59;;;;;;;1.13;1.03;;;;;;;;;;5074372;28;20206;-64
2022/08/10 06:29:34;;;;;;;1.00;1.00;;;;;;;;;;5064216;28;20204;-63
2022/08/10 06:32:06;;;;;;;1.67;1.10;;;;;;;;;;5051349;28;20197;-65
2022/08/10 06:34:59;;;;;;;1.40;1.30;;;;;;;;;;5063449;28;20280;-66
2022/08/10 06:37:33;;;;;;;0.90;0.90;;;;;;;;;;5061760;28;20200;-66
2022/08/10 06:40:18;;;;;;;1.27;0.80;;;;;;;;;;5087398;28;20752;-66
2022/08/10 06:43:05;;;;;;;1.60;1.00;;;;;;;;;;5084356;28;20217;-67
2022/08/10 06:46:02;;;;;;;0.90;0.90;;;;;;;;;;5081887;28;20216;-66
2022/08/10 06:48:39;;;;;;;0.90;0.90;;;;;;;;;;5086391;28;20232;-67
2022/08/10 06:51:13;;;;;;;0.80;0.80;;;;;;;;;;5062126;28;20222;-66
2022/08/10 06:53:47;;;;;;;1.23;0.83;;;;;;;;;;5080497;28;20669;-66
2022/08/10 06:56:33;;;;;;;1.23;1.13;;;;;;;;;;5066862;28;20361;-66
2022/08/10 06:59:14;;;;;;;1.10;1.00;;;;;;;;;;5063512;28;20296;-66
2022/08/10 07:01:54;;;;;;;0.80;0.80;;;;;;;;;;5078982;28;20507;-66
2022/08/10 07:04:28;;;;;;;0.93;0.93;;;;;;;;;;5061362;28;20197;-66
2022/08/10 07:07:07;;;;;;;0.70;0.70;;;;;;;;;;5085702;28;20662;-66
2022/08/10 07:09:40;;;;;;;0.80;0.80;;;;;;;;;;5069105;28;20185;-66
2022/08/10 07:12:15;;;;;;;0.83;0.83;;;;;;;;;;5074918;28;20193;-66
2022/08/10 07:15:01;;;;;;;0.80;0.80;;;;;;;;;;5073180;28;20828;-66
2022/08/10 07:17:47;;;;;;;1.07;1.00;;;;;;;;;;5060940;28;20201;-66
2022/08/10 07:20:29;;;;;;;1.57;0.90;;;;;;;;;;5083567;28;20186;-65
2022/08/10 07:23:01;;;;;;;1.20;1.10;;;;;;;;;;5077185;28;20220;-66
2022/08/10 07:26:00;;;;;;;0.97;0.90;;;;;;;;;;5073030;28;20205;-66
2022/08/10 07:28:31;;;;;;;2.07;0.90;;;;;;;;;;5087133;28;20548;-66
2022/08/10 07:31:02;;;;;;;1.50;0.90;;;;;;;;;;5085333;28;20500;-67
2022/08/10 07:33:54;;;;;;;0.93;0.93;;;;;;;;;;5084796;28;20208;-66
2022/08/10 07:36:27;;;;;;;1.17;1.07;;;;;;;;;;5079767;28;20190;-65
2022/08/10 07:39:00;;;;;;;0.90;0.90;;;;;;;;;;5060097;28;20268;-65
2022/08/10 07:41:32;;;;;;;0.93;0.90;;;;;;;;;;5077505;28;20871;-65
2022/08/10 07:44:07;;;;;;;1.30;0.90;;;;;;;;;;5087057;28;20675;-65
2022/08/10 07:46:37;;;;;;;1.33;1.10;;;;;;;;;;5079696;28;20221;-67
2022/08/10 07:49:10;;;;;;;1.20;1.10;;;;;;;;;;5086138;28;20193;-66
2022/08/10 07:51:55;;;;;;;0.90;0.90;;;;;;;;;;5071873;28;20185;-66
2022/08/10 07:54:28;;;;;;;1.17;0.90;;;;;;;;;;5090037;28;20200;-66
2022/08/10 07:57:02;;;;;;;1.17;1.07;;;;;;;;;;5083979;28;20224;-66
2022/08/10 07:59:38;;;;;;;1.50;1.10;;;;;;;;;;5081486;28;20259;-66
2022/08/10 08:02:14;;;;;;;1.10;1.00;;;;;;;;;;5085460;28;20203;-64
2022/08/10 08:04:41;;;;;;;0.83;0.83;;;;;;;;;;5052569;28;20208;-65
2022/08/10 08:07:14;;;;;;;0.90;0.90;;;;;;;;;;5088338;28;20217;-65
2022/08/10 08:09:48;;;;;;;1.00;0.90;;;;;;;;;;5076073;28;20693;-66
2022/08/10 08:12:34;;;;;;;1.00;0.83;;;;;;;;;;5091155;28;20193;-64
2022/08/10 08:15:09;;;;;;;1.10;1.00;;;;;;;;;;5080563;28;20197;-65
2022/08/10 08:18:04;;;;;;;1.40;1.20;;;;;;;;;;5077940;28;20222;-65
2022/08/10 08:20:41;;;;;;;0.90;0.90;;;;;;;;;;5066775;28;20209;-66
2022/08/10 08:23:16;;;;;;;1.00;1.00;;;;;;;;;;5081612;28;20213;-66
2022/08/10 08:26:17;;;;;;;1.20;1.10;;;;;;;;;;5083999;28;20192;-66
2022/08/10 08:28:52;;;;;;;1.37;1.23;;;;;;;;;;5086645;28;20267;-66
2022/08/10 08:31:35;;;;;;;1.30;1.20;;;;;;;;;;5077320;28;20189;-65
2022/08/10 08:34:24;;;;;;;2.63;1.60;;;;;;;;;;5048964;28;20233;-64
2022/08/10 08:36:54;;;;;;;3.40;1.30;;;;;;;;;;5084815;28;20276;-64
2022/08/10 08:39:28;;;;;;;2.87;1.30;;;;;;;;;;5063035;28;20208;-65
2022/08/10 08:42:13;;;;;;;2.97;1.63;;;;;;;;;;5084438;28;20200;-68
2022/08/10 08:45:16;;;;;;;3.90;1.70;;;;;;;;;;5080974;28;20280;-66
2022/08/10 08:48:19;;;;;;;3.93;1.50;;;;;;;;;;5081378;28;20229;-66
2022/08/10 08:51:11;;;;;;;3.10;1.40;;;;;;;;;;5057712;28;20624;-66
2022/08/10 08:54:36;;;;;;;3.00;1.50;;;;;;;;;;5063077;28;20240;-65
2022/08/10 08:57:18;;;;;;;3.50;1.40;;;;;;;;;;5024145;28;20202;-65
2022/08/10 09:00:23;;;;;;;2.50;1.30;;;;;;;;;;5067373;28;20186;-66
2022/08/10 09:02:58;;;;;;;1.63;1.30;;;;;;;;;;5059673;28;20193;-66
2022/08/10 09:05:54;;;;;;;4.33;2.00;;;;;;;;;;5056585;28;20278;-67
2022/08/10 09:08:36;;;;;;;1.73;1.40;;;;;;;;;;5063071;28;20221;-66
2022/08/10 09:11:16;;;;;;;1.93;1.43;;;;;;;;;;5051495;28;20208;-65
2022/08/10 09:13:51;;;;;;;2.93;1.47;;;;;;;;;;5077235;28;20713;-66
2022/08/10 09:16:46;;;;;;;6.13;1.40;;;;;;;;;;5059391;28;20285;-66
2022/08/10 09:19:33;;;;;;;1.90;1.40;;;;;;;;;;5056361;28;20206;-66
2022/08/10 09:22:06;;;;;;;2.77;1.70;;;;;;;;;;5061305;28;20215;-66
2022/08/10 09:24:45;;;;;;;2.00;1.43;;;;;;;;;;5059600;28;20197;-66
2022/08/10 09:27:53;;;;;;;3.73;1.83;;;;;;;;;;5057915;28;20233;-67
2022/08/10 09:30:28;;;;;;;2.37;1.60;;;;;;;;;;5065292;28;20519;-67
2022/08/10 09:33:15;;;;;;;2.37;1.63;;;;;;;;;;5040396;28;20207;-66
2022/08/10 09:36:22;;;;;;;2.00;1.80;;;;;;;;;;5049770;28;20205;-65
2022/08/10 09:39:24;;;;;;;2.67;1.13;;;;;;;;;;5043428;28;20202;-65
2022/08/10 09:42:29;;;;;;;2.20;1.67;;;;;;;;;;5064268;28;20246;-66
2022/08/10 09:45:29;;;;;;;1.30;1.20;;;;;;;;;;5064460;28;20285;-66
2022/08/10 09:48:25;;;;;;;1.63;1.50;;;;;;;;;;5054503;28;20749;-66
2022/08/10 09:51:14;;;;;;;2.60;1.60;;;;;;;;;;5059738;28;20388;-65
2022/08/10 09:54:37;;;;;;;1.90;1.50;;;;;;;;;;5060668;28;20224;-65
2022/08/10 09:57:28;;;;;;;2.27;1.50;;;;;;;;;;5064222;28;20198;-65
2022/08/10 10:00:22;;;;;;;2.17;1.60;;;;;;;;;;5062320;28;20197;-65
2022/08/10 10:02:55;;;;;;;1.93;1.73;;;;;;;;;;5066545;28;20554;-65
2022/08/10 10:05:45;;;;;;;1.53;1.30;;;;;;;;;;5065405;28;20324;-65
2022/08/10 10:08:21;;;;;;;2.03;1.47;;;;;;;;;;5066479;28;20249;-65
2022/08/10 10:11:13;;;;;;;2.50;1.73;;;;;;;;;;5056441;28;20243;-66
2022/08/10 10:13:48;;;;;;;2.10;1.70;;;;;;;;;;5068276;28;20517;-65
2022/08/10 10:16:31;;;;;;;2.07;1.87;;;;;;;;;;5072237;28;20283;-65
2022/08/10 10:19:07;;;;;;;2.90;1.87;;;;;;;;;;5056481;28;20202;-66
2022/08/10 10:21:54;;;;;;;1.70;1.60;;;;;;;;;;5041748;28;20201;-66
2022/08/10 10:24:38;;;;;;;2.80;1.70;;;;;;;;;;5067283;28;20194;-66
2022/08/10 10:27:21;;;;;;;1.67;1.40;;;;;;;;;;5058637;28;20691;-67
2022/08/10 10:30:03;;;;;;;1.70;1.60;;;;;;;;;;5067162;28;20287;-66
2022/08/10 10:32:53;;;;;;;2.03;1.60;;;;;;;;;;5064516;28;20190;-66
2022/08/10 10:35:25;;;;;;;2.13;1.90;;;;;;;;;;5061930;28;20209;-66
2022/08/10 10:37:56;;;;;;;2.10;1.70;;;;;;;;;;5012434;28;20232;-66
2022/08/10 10:41:01;;;;;;;2.00;1.73;;;;;;;;;;5044024;28;20206;-66
2022/08/10 10:43:47;;;;;;;2.03;1.77;;;;;;;;;;5056088;28;20216;-66
2022/08/10 10:46:23;;;;;;;3.13;1.70;;;;;;;;;;5062149;28;20214;-66
2022/08/10 10:49:16;;;;;;;2.87;1.83;;;;;;;;;;5035471;28;20699;-66
2022/08/10 10:51:55;;;;;;;2.87;1.53;;;;;;;;;;5036103;28;20680;-65
2022/08/10 10:54:50;;;;;;;1.63;1.53;;;;;;;;;;5041072;28;20290;-66
2022/08/10 10:57:27;;;;;;;1.50;1.40;;;;;;;;;;5003673;28;20218;-66
2022/08/10 11:00:21;;;;;;;1.73;1.63;;;;;;;;;;5048354;28;20638;-66
2022/08/10 11:03:04;;;;;;;4.30;2.10;;;;;;;;;;5045121;28;20710;-66
2022/08/10 11:05:56;;;;;;;2.50;1.93;;;;;;;;;;5039095;28;20221;-66
2022/08/10 11:08:30;;;;;;;1.97;1.77;;;;;;;;;;5043095;28;20321;-66
2022/08/10 11:11:25;;;;;;;3.93;2.00;;;;;;;;;;5021957;28;20293;-66
2022/08/10 11:14:26;;;;;;;1.80;1.70;;;;;;;;;;5036858;28;20203;-66
2022/08/10 11:17:22;;;;;;;3.70;1.97;;;;;;;;;;5040448;28;20199;-66
2022/08/10 11:20:02;;;;;;;2.10;1.87;;;;;;;;;;5040269;28;20679;-65
2022/08/10 11:22:56;;;;;;;2.03;1.93;;;;;;;;;;5034856;28;20658;-65
2022/08/10 11:25:30;;;;;;;2.10;1.87;;;;;;;;;;5041331;28;20820;-65
2022/08/10 11:28:18;;;;;;;1.93;1.83;;;;;;;;;;5031331;28;20533;-65
2022/08/10 11:30:49;;;;;;;2.00;1.87;;;;;;;;;;5047194;28;20226;-67
2022/08/10 11:33:23;;;;;;;2.23;2.03;;;;;;;;;;5043003;28;20209;-66
2022/08/10 11:36:32;;;;;;;2.27;1.97;;;;;;;;;;5029127;28;20218;-65
2022/08/10 11:39:14;;;;;;;2.10;1.90;;;;;;;;;;5045778;28;20198;-66
2022/08/10 11:41:51;;;;;;;1.97;1.80;;;;;;;;;;5046960;28;20210;-66
2022/08/10 11:45:08;;;;;;;3.03;1.93;;;;;;;;;;5044083;28;20195;-66
2022/08/10 11:47:57;;;;;;;1.60;1.50;;;;;;;;;;4977740;28;20231;-65
2022/08/10 11:50:48;;;;;;;1.77;1.67;;;;;;;;;;5035939;28;20203;-66
2022/08/10 11:53:25;;;;;;;2.17;1.97;;;;;;;;;;5036456;28;20194;-65
2022/08/10 11:56:06;;;;;;;1.90;1.80;;;;;;;;;;5042866;28;20739;-66
2022/08/10 12:01:48;;;;;;;2.10;1.90;;;;;;;;;;5046176;28;20578;-66
2022/08/10 12:04:20;;;;;;;2.30;1.87;;;;;;;;;;5012603;28;20205;-67
2022/08/10 12:06:52;;;;;;;2.17;2.07;;;;;;;;;;5026804;28;20763;-66
2022/08/10 12:09:33;;;;;;;1.90;1.80;;;;;;;;;;5029474;28;20588;-66
2022/08/10 12:12:24;;;;;;;2.50;1.93;;;;;;;;;;5038440;28;20213;-66
2022/08/10 12:15:17;;;;;;;2.10;2.00;;;;;;;;;;5025991;28;20205;-66
2022/08/10 12:17:54;;;;;;;2.30;2.10;;;;;;;;;;5042208;28;20191;-67
2022/08/10 12:20:30;;;;;;;2.10;1.90;;;;;;;;;;5045729;28;20198;-67
2022/08/10 12:23:13;;;;;;;2.30;2.10;;;;;;;;;;5039188;28;20229;-66
2022/08/10 12:25:56;;;;;;;3.90;2.23;;;;;;;;;;5042960;28;20194;-65
2022/08/10 12:28:44;;;;;;;2.47;2.17;;;;;;;;;;5018955;28;20215;-65
2022/08/10 12:31:49;;;;;;;2.63;2.10;;;;;;;;;;5029697;28;20198;-67
2022/08/10 12:34:28;;;;;;;2.77;2.20;;;;;;;;;;5002807;28;20679;-66
2022/08/10 12:37:07;;;;;;;2.57;2.20;;;;;;;;;;5040908;28;20191;-67
2022/08/10 12:39:51;;;;;;;1.97;1.77;;;;;;;;;;5028494;28;20199;-66
2022/08/10 12:43:00;;;;;;;2.27;2.00;;;;;;;;;;5019722;28;20305;-66
2022/08/10 12:46:06;;;;;;;2.47;2.27;;;;;;;;;;5040356;28;20245;-66
2022/08/10 12:49:03;;;;;;;2.20;2.10;;;;;;;;;;5020077;28;20233;-66
2022/08/10 12:51:34;;;;;;;2.23;1.83;;;;;;;;;;5039100;28;20190;-66
2022/08/10 12:54:17;;;;;;;2.80;2.30;;;;;;;;;;5043058;28;20629;-66
2022/08/10 12:57:09;;;;;;;2.27;2.07;;;;;;;;;;5028040;28;20859;-66
2022/08/10 12:59:47;;;;;;;2.30;2.10;;;;;;;;;;5031489;28;20769;-66
2022/08/10 13:02:30;;;;;;;2.37;2.17;;;;;;;;;;5025155;28;20210;-66
2022/08/10 13:05:12;;;;;;;2.40;2.20;;;;;;;;;;5029130;28;20276;-66
2022/08/10 13:07:46;;;;;;;2.23;2.03;;;;;;;;;;5010804;28;20206;-66
2022/08/10 13:10:57;;;;;;;2.27;2.17;;;;;;;;;;5031663;28;20281;-67
2022/08/10 13:13:56;;;;;;;2.90;2.70;;;;;;;;;;5037884;28;20198;-66
2022/08/10 13:16:29;;;;;;;2.93;2.10;;;;;;;;;;5041444;28;20199;-66
2022/08/10 13:19:02;;;;;;;3.87;2.20;;;;;;;;;;5033195;28;20203;-67
2022/08/10 13:21:35;;;;;;;2.40;2.20;;;;;;;;;;5038475;28;20219;-67
2022/08/10 13:24:27;;;;;;;2.30;2.10;;;;;;;;;;5043560;28;20271;-66
2022/08/10 13:26:57;;;;;;;2.47;2.27;;;;;;;;;;5028029;28;20240;-66
2022/08/10 13:29:58;;;;;;;2.53;2.10;;;;;;;;;;5036997;28;20242;-65
2022/08/10 13:32:34;;;;;;;3.37;2.20;;;;;;;;;;5021947;28;20187;-66
2022/08/10 13:35:11;;;;;;;2.70;2.30;;;;;;;;;;5019427;28;20198;-66
2022/08/10 13:37:47;;;;;;;2.33;2.23;;;;;;;;;;5034837;28;20280;-66
2022/08/10 13:40:22;;;;;;;2.30;2.10;;;;;;;;;;5046434;28;20620;-65
2022/08/10 13:42:54;;;;;;;2.40;2.07;;;;;;;;;;5028538;28;20191;-65
2022/08/10 13:45:33;;;;;;;3.70;2.27;;;;;;;;;;5005377;28;20202;-65
2022/08/10 13:48:09;;;;;;;3.93;2.57;;;;;;;;;;5049378;28;20230;-66
2022/08/10 13:50:46;;;;;;;3.20;2.20;;;;;;;;;;5056994;28;20217;-66
2022/08/10 13:53:30;;;;;;;3.50;2.50;;;;;;;;;;5076904;28;20276;-65
2022/08/10 13:56:04;;;;;;;2.70;2.30;;;;;;;;;;5066445;28;20198;-65
2022/08/10 13:58:33;;;;;;;2.20;2.00;;;;;;;;;;5054009;28;20202;-65
2022/08/10 14:01:08;;;;;;;2.27;2.00;;;;;;;;;;5076285;28;20211;-66
2022/08/10 14:03:40;;;;;;;2.57;2.37;;;;;;;;;;5044005;28;20686;-66
2022/08/10 14:06:14;;;;;;;3.03;2.40;;;;;;;;;;5057419;28;20222;-67
2022/08/10 14:08:52;;;;;;;2.30;2.10;;;;;;;;;;5055571;28;20221;-66
2022/08/10 14:11:26;;;;;;;2.30;2.10;;;;;;;;;;5043924;28;20220;-67
2022/08/10 14:14:01;;;;;;;2.33;2.13;;;;;;;;;;5058995;28;20202;-67
2022/08/10 14:16:33;;;;;;;2.33;2.10;;;;;;;;;;5051550;28;20198;-67
2022/08/10 14:19:09;;;;;;;2.20;2.00;;;;;;;;;;5052067;28;20198;-67
2022/08/10 14:21:41;;;;;;;2.00;1.90;;;;;;;;;;5057396;28;20242;-67
2022/08/10 14:24:28;;;;;;;2.10;1.90;;;;;;;;;;5059951;28;20227;-66
2022/08/10 14:27:11;;;;;;;2.40;2.20;;;;;;;;;;5065612;28;20194;-67
2022/08/10 14:29:49;;;;;;;3.07;2.60;;;;;;;;;;5057549;28;20222;-67
2022/08/10 14:32:31;;;;;;;2.13;1.80;;;;;;;;;;5061773;28;20190;-66
2022/08/10 14:35:11;;;;;;;2.30;2.10;;;;;;;;;;5047491;28;20214;-66
2022/08/10 14:38:09;;;;;;;2.27;2.07;;;;;;;;;;5062020;28;20190;-65
2022/08/10 14:40:48;;;;;;;1.80;1.70;;;;;;;;;;5050920;28;20193;-67
2022/08/10 14:43:39;;;;;;;2.23;1.97;;;;;;;;;;5061287;28;20200;-66
2022/08/10 14:46:25;;;;;;;2.27;1.90;;;;;;;;;;5053903;28;20515;-65
2022/08/10 14:48:58;;;;;;;2.07;1.93;;;;;;;;;;5080443;28;20678;-65
2022/08/10 14:51:53;;;;;;;2.40;2.03;;;;;;;;;;5065781;28;20190;-65
2022/08/10 14:54:27;;;;;;;3.40;2.10;;;;;;;;;;5050028;28;20251;-65
2022/08/10 14:56:57;;;;;;;1.73;1.63;;;;;;;;;;5046337;28;20204;-66
2022/08/10 14:59:39;;;;;;;2.00;1.80;;;;;;;;;;5042986;28;20220;-66
2022/08/10 15:02:36;;;;;;;2.90;2.10;;;;;;;;;;5049159;28;20194;-66
2022/08/10 15:05:28;;;;;;;2.20;2.00;;;;;;;;;;5061263;28;20210;-65
2022/08/10 15:08:12;;;;;;;2.13;1.80;;;;;;;;;;5052430;28;20671;-66
2022/08/10 15:10:43;;;;;;;1.83;1.73;;;;;;;;;;5041640;28;20210;-66
2022/08/10 15:13:20;;;;;;;2.27;2.13;;;;;;;;;;5063209;28;20193;-66
2022/08/10 15:16:05;;;;;;;2.90;2.70;;;;;;;;;;5056489;28;20675;-66
2022/08/10 15:18:44;;;;;;;1.60;1.50;;;;;;;;;;5048141;28;20201;-66
2022/08/10 15:21:31;;;;;;;2.30;2.10;;;;;;;;;;5059896;28;20646;-66
2022/08/10 15:24:14;;;;;;;2.07;1.77;;;;;;;;;;5069676;28;20631;-66
2022/08/10 15:27:00;;;;;;;2.00;1.90;;;;;;;;;;5048215;28;20197;-66
2022/08/10 15:29:28;;;;;;;1.93;1.83;;;;;;;;;;5043629;28;20292;-66
2022/08/10 15:37:48;;;;;;;3.07;2.00;;;;;;;;;;5046423;28;20267;-65
2022/08/10 15:40:23;;;;;;;3.10;2.00;;;;;;;;;;5063490;28;20547;-65
2022/08/10 15:43:02;;;;;;;1.80;1.70;;;;;;;;;;5062917;28;20198;-65
2022/08/10 15:45:49;;;;;;;1.83;1.73;;;;;;;;;;5064407;28;23870;-65
2022/08/10 15:48:23;;;;;;;1.70;1.60;;;;;;;;;;5049221;28;20293;-65
2022/08/10 15:51:05;;;;;;;2.20;2.00;;;;;;;;;;5063561;28;20198;-65
2022/08/10 15:53:38;;;;;;;2.50;1.90;;;;;;;;;;5044712;28;20388;-66
2022/08/10 15:56:56;;;;;;;2.13;1.83;;;;;;;;;;5058912;28;20204;-65
2022/08/10 15:59:44;;;;;;;2.00;1.80;;;;;;;;;;5037288;28;20216;-66
2022/08/10 16:02:16;;;;;;;2.30;1.70;;;;;;;;;;5062360;28;20672;-66
2022/08/10 16:05:18;;;;;;;1.83;1.73;;;;;;;;;;5037977;28;20247;-66
2022/08/10 16:08:14;;;;;;;2.43;1.57;;;;;;;;;;5058413;28;20190;-65
2022/08/10 16:10:58;;;;;;;2.37;1.73;;;;;;;;;;5045865;28;20347;-65
2022/08/10 16:13:34;;;;;;;1.63;1.53;;;;;;;;;;5061673;28;20197;-65
2022/08/10 16:16:30;;;;;;;3.80;1.50;;;;;;;;;;5051595;28;20201;-65
2022/08/10 16:19:09;;;;;;;1.77;1.67;;;;;;;;;;5041439;28;20201;-65
2022/08/10 16:22:02;;;;;;;1.70;1.60;;;;;;;;;;5057606;28;20839;-65